Frances, Washington
Current Conditions -  °F | °C
As of 11:53 PM on Saturday 25 Oct 2014 (Local Time) from KHQM Reporting Station
Overcast Overcast  
Wind Chill: 55°   Ceiling: 7500
Heat Index: 55°   Visibility: 8mi
Dew Point: 47°   Wind: 20mph
Humidity: 74%   Direction: 230°SW
Pressure: 29.78"   Gusts: NA
Location:  46.6563°N, 123.58°W
Report Text: KHQM 260653Z AUTO 23017KT 8SM SCT039 BKN075 OVC110 13/08 A2978 RMK AO2 SLP089 T01280083
Loading
Personal Weather Stations






























Interactive Weather Map
Tropical Storm Tracking
New forecast layout! Learn more

10-Day Weather Forecast

Advertisements
Track Severe Weather on mobile